createdAt,value
2023-03-12T00:02:00.669Z,3.15
2023-03-12T00:04:27.708Z,3.00
2023-03-12T00:06:54.389Z,3.50
2023-03-12T00:09:20.969Z,3.10
2023-03-12T00:11:47.571Z,3.15
2023-03-12T00:14:14.328Z,3.40
2023-03-12T00:16:40.868Z,2.85
2023-03-12T00:19:07.480Z,3.10
2023-03-12T00:21:34.089Z,3.55
2023-03-12T00:24:00.695Z,3.97
2023-03-12T00:26:27.431Z,3.22
2023-03-12T00:28:54.128Z,2.95
2023-03-12T00:31:27.940Z,2.90
2023-03-12T00:33:54.891Z,3.70
2023-03-12T00:36:24.825Z,3.20
2023-03-12T00:38:51.973Z,3.20
2023-03-12T00:41:20.073Z,3.60
2023-03-12T00:43:47.121Z,3.50
2023-03-12T00:46:13.780Z,3.53
2023-03-12T00:48:40.432Z,3.50
2023-03-12T00:51:07.187Z,3.88
2023-03-12T00:53:33.884Z,3.60
2023-03-12T00:56:00.399Z,4.10
2023-03-12T00:58:26.990Z,4.20
2023-03-12T01:00:53.678Z,3.90
2023-03-12T01:03:20.304Z,3.65
2023-03-12T01:05:46.894Z,3.50
2023-03-12T01:08:13.550Z,3.60
2023-03-12T01:10:42.641Z,2.80
2023-03-12T01:13:09.244Z,3.13
2023-03-12T01:15:35.905Z,3.33
2023-03-12T01:18:02.521Z,2.70
2023-03-12T01:20:29.251Z,2.88
2023-03-12T01:22:55.798Z,3.42
2023-03-12T01:25:22.361Z,3.63
2023-03-12T01:27:48.971Z,3.25
2023-03-12T01:30:15.644Z,3.35
2023-03-12T01:32:42.270Z,3.10
2023-03-12T01:35:09.202Z,3.45
2023-03-12T01:37:35.757Z,3.35
2023-03-12T01:40:02.387Z,3.67
2023-03-12T01:42:29.043Z,3.05
2023-03-12T01:44:58.035Z,4.00
2023-03-12T01:47:25.258Z,2.67
2023-03-12T01:49:52.908Z,2.95
2023-03-12T01:52:22.243Z,3.75
2023-03-12T01:54:58.088Z,2.75
2023-03-12T01:57:46.284Z,3.42
2023-03-12T02:00:16.160Z,3.08
2023-03-12T02:02:44.204Z,3.15
2023-03-12T02:05:22.536Z,2.97
2023-03-12T02:07:49.090Z,3.75
2023-03-12T02:10:16.183Z,3.15
2023-03-12T02:12:43.150Z,3.97
2023-03-12T02:15:10.664Z,3.20
2023-03-12T02:17:40.434Z,3.50
2023-03-12T02:20:16.887Z,3.70
2023-03-12T02:22:46.628Z,3.88
2023-03-12T02:25:16.472Z,3.08
2023-03-12T02:27:43.641Z,3.58
2023-03-12T02:30:10.703Z,3.10
2023-03-12T02:32:39.508Z,3.10
2023-03-12T02:35:06.466Z,3.15
2023-03-12T02:37:33.066Z,3.08
2023-03-12T02:40:13.508Z,3.00
2023-03-12T02:42:40.416Z,2.55
2023-03-12T02:45:07.128Z,3.08
2023-03-12T02:47:33.841Z,2.83
2023-03-12T02:50:00.423Z,3.20
2023-03-12T02:52:27.019Z,3.03
2023-03-12T02:54:53.681Z,2.92
2023-03-12T02:57:20.402Z,3.50
2023-03-12T02:59:46.971Z,3.55
2023-03-12T03:02:13.746Z,2.03
2023-03-12T03:04:40.668Z,3.07
2023-03-12T03:07:07.229Z,3.05
2023-03-12T03:09:34.002Z,2.13
2023-03-12T03:12:00.931Z,3.05
2023-03-12T03:14:29.786Z,2.17
2023-03-12T03:16:56.511Z,1.52
2023-03-12T03:19:23.203Z,3.15
2023-03-12T03:21:49.910Z,1.90
2023-03-12T03:24:16.924Z,2.38
2023-03-12T03:26:44.210Z,2.83
2023-03-12T03:29:10.812Z,2.53
2023-03-12T03:31:37.446Z,2.50
2023-03-12T03:34:04.314Z,2.67
2023-03-12T03:36:31.007Z,3.28
2023-03-12T03:39:05.198Z,2.05
2023-03-12T03:41:33.014Z,2.75
2023-03-12T03:44:00.040Z,2.08
2023-03-12T03:46:28.822Z,2.25
2023-03-12T03:49:01.083Z,2.05
2023-03-12T03:51:29.200Z,2.00
2023-03-12T03:54:02.904Z,2.53
2023-03-12T03:56:29.998Z,2.90
2023-03-12T03:58:58.570Z,2.33
2023-03-12T04:01:26.217Z,2.65
2023-03-12T04:03:54.346Z,2.67
2023-03-12T04:06:21.387Z,2.75
2023-03-12T04:08:48.222Z,1.65
2023-03-12T04:11:18.579Z,2.50
2023-03-12T04:13:45.724Z,2.22
2023-03-12T04:16:14.655Z,2.38
2023-03-12T04:18:41.968Z,2.60
2023-03-12T04:21:09.379Z,1.80
2023-03-12T04:23:36.667Z,2.65
2023-03-12T04:26:04.299Z,2.33
2023-03-12T04:28:30.929Z,2.83
2023-03-12T04:30:59.761Z,2.20
2023-03-12T04:33:32.309Z,2.35
2023-03-12T04:35:59.732Z,2.42
2023-03-12T04:38:26.649Z,1.88
2023-03-12T04:41:01.926Z,2.13
2023-03-12T04:43:29.860Z,2.70
2023-03-12T04:45:56.651Z,2.70
2023-03-12T04:48:23.550Z,2.78
2023-03-12T04:50:51.724Z,2.50
2023-03-12T04:53:18.908Z,2.72
2023-03-12T04:55:46.558Z,2.45
2023-03-12T05:00:41.495Z,3.50
2023-03-12T05:03:08.988Z,2.03
2023-03-12T05:05:35.975Z,2.17
2023-03-12T05:08:03.701Z,2.00
2023-03-12T05:10:31.840Z,2.55
2023-03-12T05:12:59.096Z,2.47
2023-03-12T05:15:26.281Z,2.50
2023-03-12T05:17:54.736Z,2.55
2023-03-12T05:20:21.762Z,2.50
2023-03-12T05:22:48.819Z,3.03
2023-03-12T05:25:16.116Z,2.30
2023-03-12T05:27:42.860Z,3.10
2023-03-12T05:30:10.117Z,2.88
2023-03-12T05:32:37.548Z,2.55
2023-03-12T05:35:04.402Z,2.63
2023-03-12T05:37:31.845Z,2.30
2023-03-12T05:40:00.670Z,3.20
2023-03-12T05:44:55.137Z,2.70
2023-03-12T05:47:22.824Z,3.05
2023-03-12T05:49:49.578Z,2.95
2023-03-12T05:52:16.264Z,2.75
2023-03-12T05:54:43.556Z,2.15
2023-03-12T05:57:10.458Z,1.58
2023-03-12T05:59:37.202Z,2.78
2023-03-12T06:02:04.729Z,2.97
2023-03-12T06:04:32.936Z,2.70
2023-03-12T06:07:00.422Z,2.97
2023-03-12T06:09:27.952Z,2.97
2023-03-12T06:11:57.711Z,2.50
2023-03-12T06:14:24.294Z,3.75
2023-03-12T06:16:51.026Z,1.50
2023-03-12T06:19:17.957Z,2.63
2023-03-12T06:21:47.692Z,3.40
2023-03-12T06:24:14.574Z,3.40
2023-03-12T06:29:28.647Z,2.63
2023-03-12T06:31:56.084Z,3.38
2023-03-12T06:34:22.848Z,3.00
2023-03-12T06:36:49.443Z,2.90
2023-03-12T06:39:16.008Z,2.50
2023-03-12T06:41:42.658Z,3.15
2023-03-12T06:44:09.315Z,2.65
2023-03-12T06:46:36.996Z,4.00
2023-03-12T06:49:04.029Z,3.05
2023-03-12T06:51:30.605Z,4.00
2023-03-12T06:53:57.174Z,4.47
2023-03-12T06:56:23.814Z,4.25
2023-03-12T06:58:50.430Z,4.80
2023-03-12T07:01:16.968Z,3.78
2023-03-12T07:03:43.528Z,3.22
2023-03-12T07:06:17.354Z,4.38
2023-03-12T07:08:44.424Z,3.33
2023-03-12T07:11:11.183Z,6.18
2023-03-12T07:13:37.933Z,5.15
2023-03-12T07:16:04.682Z,4.47
2023-03-12T07:18:31.331Z,5.20
2023-03-12T07:20:57.871Z,4.75
2023-03-12T07:23:24.704Z,4.03
2023-03-12T07:25:51.623Z,5.10
2023-03-12T07:28:18.636Z,6.47
2023-03-12T07:30:50.341Z,4.87
2023-03-12T07:33:21.063Z,5.82
2023-03-12T07:35:51.327Z,5.78
2023-03-12T07:38:18.663Z,5.03
2023-03-12T07:40:45.348Z,4.93
2023-03-12T07:43:12.784Z,6.13
2023-03-12T07:45:41.022Z,11.88
2023-03-12T07:48:08.239Z,5.70
2023-03-12T07:50:35.204Z,11.52
2023-03-12T07:53:01.853Z,7.35
2023-03-12T07:55:28.476Z,9.52
2023-03-12T07:57:58.421Z,6.32
2023-03-12T08:00:25.566Z,7.57
2023-03-12T08:02:52.594Z,7.45
2023-03-12T08:05:19.507Z,5.27
2023-03-12T08:07:46.537Z,6.97
2023-03-12T08:10:13.218Z,8.73
2023-03-12T08:12:39.875Z,8.10
2023-03-12T08:15:08.456Z,11.88
2023-03-12T08:17:35.478Z,12.20
2023-03-12T08:20:02.059Z,10.10
2023-03-12T08:22:28.657Z,10.73
2023-03-12T08:24:55.154Z,8.68
2023-03-12T08:27:21.729Z,10.77
2023-03-12T08:29:48.306Z,10.00
2023-03-12T08:32:14.990Z,12.32
2023-03-12T08:34:41.675Z,12.25
2023-03-12T08:37:08.247Z,10.32
2023-03-12T08:39:34.909Z,11.40
2023-03-12T08:42:01.858Z,12.50
2023-03-12T08:44:28.534Z,12.07
2023-03-12T08:46:55.163Z,14.35
2023-03-12T08:49:22.635Z,10.80
2023-03-12T08:51:49.480Z,12.48
2023-03-12T08:54:16.056Z,13.45
2023-03-12T08:56:43.683Z,12.13
2023-03-12T08:59:10.927Z,14.18
2023-03-12T09:01:38.003Z,14.43
2023-03-12T09:04:04.967Z,11.57
2023-03-12T09:06:31.992Z,14.87
2023-03-12T09:08:59.475Z,13.75
2023-03-12T09:11:26.345Z,13.63
2023-03-12T09:14:28.052Z,12.15
2023-03-12T09:16:39.502Z,14.73
2023-03-12T09:19:06.175Z,10.90
2023-03-12T09:21:32.782Z,15.65
2023-03-12T09:23:59.549Z,14.88
2023-03-12T09:26:26.162Z,15.93
2023-03-12T09:28:52.752Z,12.02
2023-03-12T09:31:19.418Z,12.40
2023-03-12T09:33:46.063Z,11.93
2023-03-12T09:36:12.762Z,13.82
2023-03-12T09:38:39.410Z,10.77
2023-03-12T09:41:06.690Z,14.60
2023-03-12T09:43:41.534Z,12.30
2023-03-12T09:46:31.487Z,10.98
2023-03-12T09:48:58.976Z,11.52
2023-03-12T09:51:32.696Z,9.43
2023-03-12T09:54:03.135Z,11.57
2023-03-12T09:56:30.110Z,8.15
2023-03-12T09:58:56.751Z,9.70
2023-03-12T10:01:38.489Z,10.82
2023-03-12T10:04:05.007Z,7.50
2023-03-12T10:06:45.206Z,12.27
2023-03-12T10:09:32.306Z,9.73
2023-03-12T10:12:03.374Z,9.05
2023-03-12T10:14:33.078Z,9.15
2023-03-12T10:17:14.719Z,7.60
2023-03-12T10:19:56.734Z,7.82
2023-03-12T10:22:26.305Z,7.88
2023-03-12T10:25:00.305Z,7.80
2023-03-12T10:27:29.342Z,7.20
2023-03-12T10:29:56.765Z,7.88
2023-03-12T10:32:27.474Z,5.72
2023-03-12T10:34:56.302Z,6.10
2023-03-12T10:37:22.933Z,6.50
2023-03-12T10:39:49.753Z,4.90
2023-03-12T10:42:21.036Z,5.88
2023-03-12T10:44:49.451Z,5.03
2023-03-12T10:47:37.738Z,6.07
2023-03-12T10:50:13.489Z,21.05
2023-03-12T10:52:40.299Z,6.90
2023-03-12T10:55:12.428Z,6.32
2023-03-12T10:57:40.676Z,6.78
2023-03-12T11:00:10.358Z,4.72
2023-03-12T11:02:41.585Z,8.10
2023-03-12T11:05:28.352Z,9.05
2023-03-12T11:07:56.129Z,5.77
2023-03-12T11:10:45.435Z,5.35
2023-03-12T11:13:30.859Z,5.53
2023-03-12T11:15:59.331Z,6.40
2023-03-12T11:18:26.025Z,5.22
2023-03-12T11:20:53.946Z,5.72
2023-03-12T11:25:55.496Z,5.13
2023-03-12T11:28:28.656Z,5.65
2023-03-12T11:30:56.914Z,5.32
2023-03-12T11:33:23.678Z,2.97
2023-03-12T11:36:04.497Z,7.13
2023-03-12T11:38:33.211Z,28.75
2023-03-12T11:41:18.583Z,3.83
2023-03-12T11:43:45.263Z,2.75
2023-03-12T11:46:12.137Z,2.50
2023-03-12T11:48:57.481Z,3.42
2023-03-12T11:51:36.068Z,2.05
2023-03-12T11:54:21.384Z,2.28
2023-03-12T11:56:59.108Z,3.58
2023-03-12T12:01:57.300Z,2.17
2023-03-12T12:04:23.909Z,3.63
2023-03-12T12:06:57.483Z,3.40
2023-03-12T12:09:40.680Z,3.03
2023-03-12T12:12:21.519Z,3.25
2023-03-12T12:14:48.076Z,4.38
2023-03-12T12:17:20.871Z,3.28
2023-03-12T12:19:50.495Z,3.63
2023-03-12T12:22:27.360Z,2.90
2023-03-12T12:24:54.193Z,3.10
2023-03-12T12:27:32.377Z,3.38
2023-03-12T12:30:01.873Z,3.22
2023-03-12T12:32:51.676Z,4.20
2023-03-12T12:35:51.400Z,3.58
2023-03-12T12:38:35.291Z,3.25
2023-03-12T12:41:02.032Z,2.90
2023-03-12T12:43:35.420Z,3.25
2023-03-12T12:46:22.348Z,4.65
2023-03-12T12:48:52.036Z,3.00
2023-03-12T12:51:20.820Z,1.60
2023-03-12T12:54:02.905Z,2.92
2023-03-12T12:56:29.684Z,3.05
2023-03-12T12:59:09.071Z,2.85
2023-03-12T13:01:36.590Z,2.95
2023-03-12T13:04:16.688Z,2.70
2023-03-12T13:07:03.620Z,2.80
2023-03-12T13:09:38.155Z,3.22
2023-03-12T13:12:13.834Z,2.65
2023-03-12T13:14:41.904Z,2.88
2023-03-12T13:17:28.810Z,3.10
2023-03-12T13:20:01.721Z,3.08
2023-03-12T13:22:39.817Z,2.83
2023-03-12T13:25:09.182Z,2.40
2023-03-12T13:27:39.941Z,2.95
2023-03-12T13:30:24.899Z,2.65
2023-03-12T13:32:51.532Z,2.55
2023-03-12T13:35:18.077Z,3.15
2023-03-12T13:37:53.595Z,2.20
2023-03-12T13:40:29.050Z,2.05
2023-03-12T13:43:21.725Z,2.70
2023-03-12T13:45:48.302Z,2.97
2023-03-12T13:48:16.542Z,1.83
2023-03-12T13:50:51.983Z,3.28
2023-03-12T13:53:25.809Z,2.85
2023-03-12T13:56:12.756Z,2.75
2023-03-12T13:58:48.135Z,2.92
2023-03-12T14:01:17.589Z,1.83
2023-03-12T14:03:49.685Z,2.00
2023-03-12T14:06:20.495Z,2.15
2023-03-12T14:08:47.015Z,1.95
2023-03-12T14:11:13.600Z,2.40
2023-03-12T14:13:51.791Z,2.88
2023-03-12T14:16:21.143Z,2.47
2023-03-12T14:18:49.001Z,2.30
2023-03-12T14:21:16.968Z,3.25
2023-03-12T14:26:17.458Z,2.40
2023-03-12T14:28:54.814Z,3.80
2023-03-12T14:31:23.785Z,2.70
2023-03-12T14:33:53.361Z,1.63
2023-03-12T14:36:21.491Z,2.20
2023-03-12T14:38:49.057Z,1.77
2023-03-12T14:41:24.449Z,2.03
2023-03-12T14:43:52.250Z,1.73
2023-03-12T14:46:20.066Z,2.85
2023-03-12T14:51:27.230Z,1.98
2023-03-12T14:53:54.536Z,3.03
2023-03-12T14:56:29.473Z,2.58
2023-03-12T14:58:56.819Z,1.73
2023-03-12T15:01:26.038Z,2.05
2023-03-12T15:03:54.170Z,2.65
2023-03-12T15:06:20.707Z,2.67
2023-03-12T15:08:49.031Z,2.88
2023-03-12T15:11:19.949Z,2.55
2023-03-12T15:13:47.350Z,2.63
2023-03-12T15:16:14.110Z,1.80
2023-03-12T15:18:40.789Z,2.22
2023-03-12T15:21:07.667Z,1.92
2023-03-12T15:23:36.070Z,2.78
2023-03-12T15:26:11.535Z,2.47
2023-03-12T15:28:38.481Z,2.83
2023-03-12T15:31:14.058Z,2.28
2023-03-12T15:33:41.493Z,2.63
2023-03-12T15:36:08.050Z,1.92
2023-03-12T15:38:35.183Z,1.90
2023-03-12T15:41:06.186Z,2.97
2023-03-12T15:43:32.888Z,1.20
2023-03-12T15:46:03.650Z,2.20
2023-03-12T15:48:33.388Z,1.52
2023-03-12T15:51:00.001Z,1.98
2023-03-12T15:53:31.143Z,2.47
2023-03-12T15:55:57.746Z,1.52
2023-03-12T15:58:29.957Z,11.77
2023-03-12T16:01:06.479Z,10.27
2023-03-12T16:06:00.718Z,9.02
2023-03-12T16:08:36.582Z,2.10
2023-03-12T16:11:03.227Z,3.15
2023-03-12T16:13:31.439Z,5.97
2023-03-12T16:15:58.313Z,3.65
2023-03-12T16:18:24.985Z,20.48
2023-03-12T16:20:52.583Z,9.57
2023-03-12T16:23:19.447Z,13.90
2023-03-12T16:25:49.431Z,2.53
2023-03-12T16:28:17.532Z,1.67
2023-03-12T16:30:44.486Z,2.75
2023-03-12T16:33:15.344Z,2.60
2023-03-12T16:35:42.015Z,3.30
2023-03-12T16:38:08.564Z,2.42
2023-03-12T16:40:36.963Z,3.45
2023-03-12T16:43:05.832Z,2.40
2023-03-12T16:45:34.743Z,3.15
2023-03-12T16:48:02.720Z,3.03
2023-03-12T16:50:29.408Z,2.95
2023-03-12T16:52:56.571Z,4.38
2023-03-12T16:55:27.539Z,2.60
2023-03-12T16:57:55.544Z,2.00
2023-03-12T17:00:23.148Z,1.85
2023-03-12T17:02:49.997Z,3.00
2023-03-12T17:05:16.551Z,2.88
2023-03-12T17:07:43.067Z,4.22
2023-03-12T17:10:10.547Z,2.53
2023-03-12T17:12:38.772Z,2.65
2023-03-12T17:15:08.081Z,2.90
2023-03-12T17:17:34.681Z,3.15
2023-03-12T17:20:01.292Z,3.55
2023-03-12T17:22:27.975Z,2.35
2023-03-12T17:24:54.536Z,3.00
2023-03-12T17:27:21.211Z,2.50
2023-03-12T17:29:47.895Z,2.70
2023-03-12T17:32:14.418Z,2.35
2023-03-12T17:34:40.971Z,5.43
2023-03-12T17:37:07.676Z,5.35
2023-03-12T17:39:35.010Z,2.78
2023-03-12T17:42:03.666Z,3.50
2023-03-12T17:44:34.841Z,3.08
2023-03-12T17:47:02.068Z,3.47
2023-03-12T17:49:29.408Z,2.85
2023-03-12T17:51:56.013Z,3.38
2023-03-12T17:54:22.863Z,3.53
2023-03-12T17:56:49.524Z,4.20
2023-03-12T17:59:16.134Z,4.10
2023-03-12T18:01:42.744Z,3.40
2023-03-12T18:04:09.322Z,3.15
2023-03-12T18:06:35.870Z,2.42
2023-03-12T18:09:02.444Z,3.08
2023-03-12T18:11:28.997Z,2.80
2023-03-12T18:13:55.532Z,4.13
2023-03-12T18:16:22.191Z,9.40
2023-03-12T18:18:50.983Z,6.18
2023-03-12T18:21:18.842Z,3.05
2023-03-12T18:23:46.085Z,3.55
2023-03-12T18:26:12.668Z,3.28
2023-03-12T18:28:39.220Z,2.25
2023-03-12T18:31:05.811Z,3.10
2023-03-12T18:33:32.460Z,2.70
2023-03-12T18:35:59.115Z,2.35
2023-03-12T18:38:25.747Z,2.55
2023-03-12T18:40:52.404Z,2.67
2023-03-12T18:43:20.806Z,3.40
2023-03-12T18:45:49.830Z,2.33
2023-03-12T18:48:16.420Z,2.40
2023-03-12T18:50:42.999Z,2.70
2023-03-12T18:53:09.563Z,3.80
2023-03-12T18:55:36.157Z,3.58
2023-03-12T18:58:02.710Z,2.50
2023-03-12T19:00:29.296Z,2.80
2023-03-12T19:02:56.044Z,2.28
2023-03-12T19:05:22.715Z,2.97
2023-03-12T19:07:49.310Z,3.78
2023-03-12T19:10:16.036Z,2.55
2023-03-12T19:12:52.200Z,3.67
2023-03-12T19:15:20.563Z,4.15
2023-03-12T19:17:47.164Z,3.10
2023-03-12T19:20:14.132Z,2.50
2023-03-12T19:22:40.681Z,2.75
2023-03-12T19:25:07.481Z,3.30
2023-03-12T19:27:34.073Z,3.28
2023-03-12T19:30:00.666Z,3.83
2023-03-12T19:32:33.215Z,4.63
2023-03-12T19:35:07.977Z,4.47
2023-03-12T19:37:34.789Z,4.50
2023-03-12T19:40:01.354Z,4.13
2023-03-12T19:42:27.925Z,4.85
2023-03-12T19:44:54.471Z,4.55
2023-03-12T19:47:22.054Z,5.25
2023-03-12T19:49:48.595Z,5.40
2023-03-12T19:52:15.191Z,5.35
2023-03-12T19:54:44.039Z,4.22
2023-03-12T19:57:11.923Z,4.50
2023-03-12T19:59:38.467Z,4.43
2023-03-12T20:02:05.026Z,5.20
2023-03-12T20:04:31.639Z,5.13
2023-03-12T20:06:58.218Z,4.85
2023-03-12T20:09:24.729Z,4.32
2023-03-12T20:11:51.285Z,4.55
2023-03-12T20:14:17.829Z,4.40
2023-03-12T20:16:44.419Z,4.22
2023-03-12T20:19:11.006Z,5.07
2023-03-12T20:21:37.658Z,4.68
2023-03-12T20:24:05.141Z,5.07
2023-03-12T20:26:31.702Z,4.82
2023-03-12T20:29:02.276Z,3.67
2023-03-12T20:31:28.859Z,2.67
2023-03-12T20:33:55.445Z,3.92
2023-03-12T20:36:22.111Z,2.50
2023-03-12T20:38:49.303Z,3.63
2023-03-12T20:41:15.886Z,3.63
2023-03-12T20:43:42.799Z,3.03
2023-03-12T20:46:09.672Z,3.17
2023-03-12T20:48:36.303Z,3.50
2023-03-12T20:51:03.048Z,2.58
2023-03-12T20:53:29.754Z,2.65
2023-03-12T20:55:57.034Z,3.35
2023-03-12T20:58:24.135Z,3.50
2023-03-12T21:00:50.715Z,2.23
2023-03-12T21:03:19.216Z,2.88
2023-03-12T21:05:52.973Z,2.83
2023-03-12T21:08:19.593Z,2.22
2023-03-12T21:10:46.240Z,2.60
2023-03-12T21:13:12.804Z,2.13
2023-03-12T21:15:39.406Z,1.73
2023-03-12T21:18:05.955Z,1.83
2023-03-12T21:20:32.783Z,2.63
2023-03-12T21:23:00.856Z,2.60
2023-03-12T21:25:27.554Z,2.38
2023-03-12T21:27:54.878Z,2.58
2023-03-12T21:30:21.581Z,1.48
2023-03-12T21:32:48.196Z,2.10
2023-03-12T21:35:14.894Z,1.95
2023-03-12T21:37:41.454Z,2.08
2023-03-12T21:40:09.156Z,1.90
2023-03-12T21:42:35.798Z,1.20
2023-03-12T21:45:02.390Z,2.13
2023-03-12T21:47:28.941Z,2.30
2023-03-12T21:49:55.487Z,1.90
2023-03-12T21:52:22.075Z,1.88
2023-03-12T21:54:48.710Z,2.67
2023-03-12T21:57:15.255Z,11.85
2023-03-12T21:59:41.863Z,3.33
2023-03-12T22:02:11.293Z,2.05
2023-03-12T22:04:37.952Z,1.90
2023-03-12T22:07:04.664Z,1.92
2023-03-12T22:09:31.351Z,4.32
2023-03-12T22:11:57.944Z,1.95
2023-03-12T22:14:24.633Z,1.90
2023-03-12T22:16:51.209Z,1.95
2023-03-12T22:19:19.173Z,1.60
2023-03-12T22:21:45.758Z,1.63
2023-03-12T22:24:12.713Z,2.30
2023-03-12T22:26:39.299Z,1.27
2023-03-12T22:29:07.021Z,2.38
2023-03-12T22:31:33.643Z,1.73
2023-03-12T22:34:00.262Z,1.63
2023-03-12T22:36:26.954Z,2.50
2023-03-12T22:38:53.513Z,1.80
2023-03-12T22:41:20.080Z,2.10
2023-03-12T22:43:47.202Z,2.30
2023-03-12T22:46:15.922Z,1.85
2023-03-12T22:48:43.641Z,1.80
2023-03-12T22:51:10.586Z,1.80
2023-03-12T22:53:37.142Z,2.17
2023-03-12T22:56:05.259Z,2.42
2023-03-12T22:58:31.885Z,2.05
2023-03-12T23:01:05.825Z,1.75
2023-03-12T23:03:32.807Z,1.60
2023-03-12T23:05:59.947Z,1.67
2023-03-12T23:08:27.028Z,1.45
2023-03-12T23:11:01.275Z,1.83
2023-03-12T23:13:28.794Z,2.10
2023-03-12T23:15:55.490Z,1.85
2023-03-12T23:18:22.132Z,1.90
2023-03-12T23:20:57.196Z,1.88
2023-03-12T23:23:23.778Z,1.95
2023-03-12T23:25:54.027Z,1.73
2023-03-12T23:28:20.581Z,2.58
2023-03-12T23:30:56.612Z,2.75
2023-03-12T23:33:23.310Z,1.48
2023-03-12T23:35:53.937Z,2.05
2023-03-12T23:38:20.656Z,1.63
2023-03-12T23:40:47.242Z,1.98
2023-03-12T23:43:13.806Z,1.92
2023-03-12T23:45:41.383Z,2.33
2023-03-12T23:48:10.877Z,2.17
2023-03-12T23:50:37.948Z,1.52
2023-03-12T23:53:04.589Z,2.08
2023-03-12T23:55:31.198Z,1.83
2023-03-12T23:57:57.793Z,1.90
